sensor_id;sensor_type;location;lat;lon;timestamp;temperature;humidity
8832;DHT22;4452;50.756;4.472;2022-08-21T00:02:18;16.20;99.90
8832;DHT22;4452;50.756;4.472;2022-08-21T00:04:44;16.20;99.90
8832;DHT22;4452;50.756;4.472;2022-08-21T00:07:10;16.20;99.90
8832;DHT22;4452;50.756;4.472;2022-08-21T00:09:36;16.10;99.90
8832;DHT22;4452;50.756;4.472;2022-08-21T00:12:02;16.20;99.90
8832;DHT22;4452;50.756;4.472;2022-08-21T00:14:28;16.20;99.90
8832;DHT22;4452;50.756;4.472;2022-08-21T00:16:53;16.10;99.90
8832;DHT22;4452;50.756;4.472;2022-08-21T00:19:19;16.00;99.90
8832;DHT22;4452;50.756;4.472;2022-08-21T00:21:45;16.00;99.90
8832;DHT22;4452;50.756;4.472;2022-08-21T00:24:11;16.00;99.90
8832;DHT22;4452;50.756;4.472;2022-08-21T00:26:37;15.90;99.90
8832;DHT22;4452;50.756;4.472;2022-08-21T00:29:03;15.80;99.90
8832;DHT22;4452;50.756;4.472;2022-08-21T00:31:29;15.80;99.90
8832;DHT22;4452;50.756;4.472;2022-08-21T00:33:55;15.80;99.90
8832;DHT22;4452;50.756;4.472;2022-08-21T00:36:20;15.80;99.90
8832;DHT22;4452;50.756;4.472;2022-08-21T00:38:46;15.80;99.90
8832;DHT22;4452;50.756;4.472;2022-08-21T00:41:12;15.70;99.90
8832;DHT22;4452;50.756;4.472;2022-08-21T00:43:38;15.60;99.90
8832;DHT22;4452;50.756;4.472;2022-08-21T00:46:05;15.60;99.90
8832;DHT22;4452;50.756;4.472;2022-08-21T00:48:32;15.60;99.90
8832;DHT22;4452;50.756;4.472;2022-08-21T00:51:11;15.50;99.90
8832;DHT22;4452;50.756;4.472;2022-08-21T00:53:42;15.50;99.90
8832;DHT22;4452;50.756;4.472;2022-08-21T00:56:10;15.50;99.90
8832;DHT22;4452;50.756;4.472;2022-08-21T00:58:38;15.40;99.90
8832;DHT22;4452;50.756;4.472;2022-08-21T01:01:05;15.30;99.90
8832;DHT22;4452;50.756;4.472;2022-08-21T01:03:32;15.20;99.90
8832;DHT22;4452;50.756;4.472;2022-08-21T01:05:58;15.20;99.90
8832;DHT22;4452;50.756;4.472;2022-08-21T01:08:25;15.20;99.90
8832;DHT22;4452;50.756;4.472;2022-08-21T01:10:52;15.10;99.90
8832;DHT22;4452;50.756;4.472;2022-08-21T01:13:19;15.10;99.90
8832;DHT22;4452;50.756;4.472;2022-08-21T01:15:48;15.10;99.90
8832;DHT22;4452;50.756;4.472;2022-08-21T01:18:16;14.90;99.90
8832;DHT22;4452;50.756;4.472;2022-08-21T01:20:57;14.90;99.90
8832;DHT22;4452;50.756;4.472;2022-08-21T01:23:22;14.80;99.90
8832;DHT22;4452;50.756;4.472;2022-08-21T01:25:48;14.80;99.90
8832;DHT22;4452;50.756;4.472;2022-08-21T01:28:14;14.70;99.90
8832;DHT22;4452;50.756;4.472;2022-08-21T01:30:42;14.70;99.90
8832;DHT22;4452;50.756;4.472;2022-08-21T01:33:08;14.60;99.90
8832;DHT22;4452;50.756;4.472;2022-08-21T01:35:34;14.50;99.90
8832;DHT22;4452;50.756;4.472;2022-08-21T01:37:59;14.40;99.90
8832;DHT22;4452;50.756;4.472;2022-08-21T01:40:25;14.40;99.90
8832;DHT22;4452;50.756;4.472;2022-08-21T01:42:51;14.20;99.90
8832;DHT22;4452;50.756;4.472;2022-08-21T01:45:19;14.20;99.90
8832;DHT22;4452;50.756;4.472;2022-08-21T01:47:45;14.20;99.90
8832;DHT22;4452;50.756;4.472;2022-08-21T01:50:14;14.10;99.90
8832;DHT22;4452;50.756;4.472;2022-08-21T01:52:40;14.10;99.90
8832;DHT22;4452;50.756;4.472;2022-08-21T01:55:07;13.90;99.90
8832;DHT22;4452;50.756;4.472;2022-08-21T01:57:33;13.80;99.90
8832;DHT22;4452;50.756;4.472;2022-08-21T02:00:00;13.80;99.90
8832;DHT22;4452;50.756;4.472;2022-08-21T02:02:26;13.70;99.90
8832;DHT22;4452;50.756;4.472;2022-08-21T02:04:52;13.70;99.90
8832;DHT22;4452;50.756;4.472;2022-08-21T02:07:17;13.70;99.90
8832;DHT22;4452;50.756;4.472;2022-08-21T02:09:44;13.60;99.90
8832;DHT22;4452;50.756;4.472;2022-08-21T02:12:10;13.50;99.90
8832;DHT22;4452;50.756;4.472;2022-08-21T02:14:36;13.40;99.90
8832;DHT22;4452;50.756;4.472;2022-08-21T02:17:02;13.40;99.90
8832;DHT22;4452;50.756;4.472;2022-08-21T02:19:28;13.30;99.90
8832;DHT22;4452;50.756;4.472;2022-08-21T02:21:54;13.30;99.90
8832;DHT22;4452;50.756;4.472;2022-08-21T02:24:20;13.20;99.90
8832;DHT22;4452;50.756;4.472;2022-08-21T02:26:46;13.10;99.90
8832;DHT22;4452;50.756;4.472;2022-08-21T02:29:12;13.10;99.90
8832;DHT22;4452;50.756;4.472;2022-08-21T02:31:38;13.00;99.90
8832;DHT22;4452;50.756;4.472;2022-08-21T02:34:04;12.90;99.90
8832;DHT22;4452;50.756;4.472;2022-08-21T02:36:30;12.90;99.90
8832;DHT22;4452;50.756;4.472;2022-08-21T02:38:56;12.80;99.90
8832;DHT22;4452;50.756;4.472;2022-08-21T02:41:22;12.90;99.90
8832;DHT22;4452;50.756;4.472;2022-08-21T02:43:49;12.80;99.90
8832;DHT22;4452;50.756;4.472;2022-08-21T02:46:18;12.90;99.90
8832;DHT22;4452;50.756;4.472;2022-08-21T02:48:44;12.80;99.90
8832;DHT22;4452;50.756;4.472;2022-08-21T02:51:15;12.80;99.90
8832;DHT22;4452;50.756;4.472;2022-08-21T02:53:42;12.90;99.90
8832;DHT22;4452;50.756;4.472;2022-08-21T02:56:11;12.80;99.90
8832;DHT22;4452;50.756;4.472;2022-08-21T02:58:44;12.80;99.90
8832;DHT22;4452;50.756;4.472;2022-08-21T03:01:11;12.90;99.90
8832;DHT22;4452;50.756;4.472;2022-08-21T03:03:39;12.90;99.90
8832;DHT22;4452;50.756;4.472;2022-08-21T03:06:07;12.90;99.90
8832;DHT22;4452;50.756;4.472;2022-08-21T03:08:34;12.90;99.90
8832;DHT22;4452;50.756;4.472;2022-08-21T03:10:59;12.90;99.90
8832;DHT22;4452;50.756;4.472;2022-08-21T03:13:27;12.80;99.90
8832;DHT22;4452;50.756;4.472;2022-08-21T03:15:54;12.80;99.90
8832;DHT22;4452;50.756;4.472;2022-08-21T03:18:20;12.80;99.90
8832;DHT22;4452;50.756;4.472;2022-08-21T03:20:46;12.80;99.90
8832;DHT22;4452;50.756;4.472;2022-08-21T03:23:13;12.80;99.90
8832;DHT22;4452;50.756;4.472;2022-08-21T03:25:39;12.60;99.90
8832;DHT22;4452;50.756;4.472;2022-08-21T03:28:07;12.60;99.90
8832;DHT22;4452;50.756;4.472;2022-08-21T03:30:33;12.60;99.90
8832;DHT22;4452;50.756;4.472;2022-08-21T03:32:59;12.50;99.90
8832;DHT22;4452;50.756;4.472;2022-08-21T03:35:26;12.50;99.90
8832;DHT22;4452;50.756;4.472;2022-08-21T03:37:53;12.30;99.90
8832;DHT22;4452;50.756;4.472;2022-08-21T03:40:20;12.20;99.90
8832;DHT22;4452;50.756;4.472;2022-08-21T03:42:46;12.20;99.90
8832;DHT22;4452;50.756;4.472;2022-08-21T03:45:15;12.10;99.90
8832;DHT22;4452;50.756;4.472;2022-08-21T03:47:56;12.20;99.90
8832;DHT22;4452;50.756;4.472;2022-08-21T03:50:25;12.20;99.90
8832;DHT22;4452;50.756;4.472;2022-08-21T03:52:50;12.20;99.90
8832;DHT22;4452;50.756;4.472;2022-08-21T03:55:16;12.20;99.90
8832;DHT22;4452;50.756;4.472;2022-08-21T03:57:42;12.20;99.90
8832;DHT22;4452;50.756;4.472;2022-08-21T04:00:09;12.20;99.90
8832;DHT22;4452;50.756;4.472;2022-08-21T04:02:38;12.20;99.90
8832;DHT22;4452;50.756;4.472;2022-08-21T04:05:04;12.20;99.90
8832;DHT22;4452;50.756;4.472;2022-08-21T04:07:30;12.10;99.90
8832;DHT22;4452;50.756;4.472;2022-08-21T04:09:55;12.10;99.90
8832;DHT22;4452;50.756;4.472;2022-08-21T04:12:21;12.10;99.90
8832;DHT22;4452;50.756;4.472;2022-08-21T04:14:47;12.10;99.90
8832;DHT22;4452;50.756;4.472;2022-08-21T04:17:13;12.00;99.90
8832;DHT22;4452;50.756;4.472;2022-08-21T04:19:39;12.00;99.90
8832;DHT22;4452;50.756;4.472;2022-08-21T04:22:04;12.00;99.90
8832;DHT22;4452;50.756;4.472;2022-08-21T04:24:30;12.00;99.90
8832;DHT22;4452;50.756;4.472;2022-08-21T04:26:56;12.00;99.90
8832;DHT22;4452;50.756;4.472;2022-08-21T04:29:22;12.10;99.90
8832;DHT22;4452;50.756;4.472;2022-08-21T04:31:48;12.10;99.90
8832;DHT22;4452;50.756;4.472;2022-08-21T04:34:14;12.20;99.90
8832;DHT22;4452;50.756;4.472;2022-08-21T04:36:39;12.20;99.90
8832;DHT22;4452;50.756;4.472;2022-08-21T04:39:05;12.20;99.90
8832;DHT22;4452;50.756;4.472;2022-08-21T04:41:31;12.20;99.90
8832;DHT22;4452;50.756;4.472;2022-08-21T04:43:57;12.10;99.90
8832;DHT22;4452;50.756;4.472;2022-08-21T04:46:23;12.00;99.90
8832;DHT22;4452;50.756;4.472;2022-08-21T04:48:49;12.00;99.90
8832;DHT22;4452;50.756;4.472;2022-08-21T04:51:24;12.00;99.90
8832;DHT22;4452;50.756;4.472;2022-08-21T04:53:51;12.00;99.90
8832;DHT22;4452;50.756;4.472;2022-08-21T04:58:49;12.00;99.90
8832;DHT22;4452;50.756;4.472;2022-08-21T05:01:20;12.10;99.90
8832;DHT22;4452;50.756;4.472;2022-08-21T05:03:48;12.20;99.90
8832;DHT22;4452;50.756;4.472;2022-08-21T05:06:16;12.20;99.90
8832;DHT22;4452;50.756;4.472;2022-08-21T05:08:44;12.10;99.90
8832;DHT22;4452;50.756;4.472;2022-08-21T05:11:10;12.20;99.90
8832;DHT22;4452;50.756;4.472;2022-08-21T05:13:36;12.20;99.90
8832;DHT22;4452;50.756;4.472;2022-08-21T05:16:02;12.20;99.90
8832;DHT22;4452;50.756;4.472;2022-08-21T05:18:28;12.20;99.90
8832;DHT22;4452;50.756;4.472;2022-08-21T05:20:54;12.20;99.90
8832;DHT22;4452;50.756;4.472;2022-08-21T05:23:20;12.20;99.90
8832;DHT22;4452;50.756;4.472;2022-08-21T05:25:46;12.20;99.90
8832;DHT22;4452;50.756;4.472;2022-08-21T05:28:12;12.30;99.90
8832;DHT22;4452;50.756;4.472;2022-08-21T05:30:38;12.30;99.90
8832;DHT22;4452;50.756;4.472;2022-08-21T05:33:05;12.40;99.90
8832;DHT22;4452;50.756;4.472;2022-08-21T05:35:32;12.40;99.90
8832;DHT22;4452;50.756;4.472;2022-08-21T05:37:59;12.40;99.90
8832;DHT22;4452;50.756;4.472;2022-08-21T05:40:26;12.50;99.90
8832;DHT22;4452;50.756;4.472;2022-08-21T05:42:53;12.60;99.90
8832;DHT22;4452;50.756;4.472;2022-08-21T05:45:19;12.70;99.90
8832;DHT22;4452;50.756;4.472;2022-08-21T05:47:45;12.80;99.90
8832;DHT22;4452;50.756;4.472;2022-08-21T05:50:11;12.90;99.90
8832;DHT22;4452;50.756;4.472;2022-08-21T05:52:37;13.00;99.90
8832;DHT22;4452;50.756;4.472;2022-08-21T05:55:03;13.20;99.90
8832;DHT22;4452;50.756;4.472;2022-08-21T05:57:29;13.30;99.90
8832;DHT22;4452;50.756;4.472;2022-08-21T05:59:55;13.40;99.90
8832;DHT22;4452;50.756;4.472;2022-08-21T06:02:21;13.40;99.90
8832;DHT22;4452;50.756;4.472;2022-08-21T06:04:47;13.60;99.90
8832;DHT22;4452;50.756;4.472;2022-08-21T06:07:13;13.70;99.90
8832;DHT22;4452;50.756;4.472;2022-08-21T06:09:39;13.80;99.90
8832;DHT22;4452;50.756;4.472;2022-08-21T06:12:06;13.90;99.90
8832;DHT22;4452;50.756;4.472;2022-08-21T06:14:34;14.10;99.90
8832;DHT22;4452;50.756;4.472;2022-08-21T06:17:05;14.20;99.90
8832;DHT22;4452;50.756;4.472;2022-08-21T06:19:31;14.40;99.90
8832;DHT22;4452;50.756;4.472;2022-08-21T06:21:57;14.50;99.90
8832;DHT22;4452;50.756;4.472;2022-08-21T06:24:23;14.70;99.90
8832;DHT22;4452;50.756;4.472;2022-08-21T06:26:49;14.80;99.90
8832;DHT22;4452;50.756;4.472;2022-08-21T06:29:14;14.90;99.90
8832;DHT22;4452;50.756;4.472;2022-08-21T06:31:43;15.10;99.90
8832;DHT22;4452;50.756;4.472;2022-08-21T06:34:09;15.20;99.90
8832;DHT22;4452;50.756;4.472;2022-08-21T06:36:36;15.40;99.90
8832;DHT22;4452;50.756;4.472;2022-08-21T06:39:02;15.50;99.90
8832;DHT22;4452;50.756;4.472;2022-08-21T06:41:27;15.50;99.90
8832;DHT22;4452;50.756;4.472;2022-08-21T06:43:54;15.50;99.90
8832;DHT22;4452;50.756;4.472;2022-08-21T06:46:20;15.50;99.90
8832;DHT22;4452;50.756;4.472;2022-08-21T06:48:46;15.60;99.90
8832;DHT22;4452;50.756;4.472;2022-08-21T06:51:12;15.70;99.90
8832;DHT22;4452;50.756;4.472;2022-08-21T06:53:38;15.60;99.90
8832;DHT22;4452;50.756;4.472;2022-08-21T06:56:04;15.90;99.90
8832;DHT22;4452;50.756;4.472;2022-08-21T06:58:29;16.00;99.90
8832;DHT22;4452;50.756;4.472;2022-08-21T07:00:56;16.20;99.90
8832;DHT22;4452;50.756;4.472;2022-08-21T07:03:42;16.30;99.90
8832;DHT22;4452;50.756;4.472;2022-08-21T07:06:10;16.40;99.90
8832;DHT22;4452;50.756;4.472;2022-08-21T07:08:36;16.50;99.90
8832;DHT22;4452;50.756;4.472;2022-08-21T07:11:15;16.50;99.90
8832;DHT22;4452;50.756;4.472;2022-08-21T07:13:42;16.70;99.90
8832;DHT22;4452;50.756;4.472;2022-08-21T07:16:08;16.90;99.90
8832;DHT22;4452;50.756;4.472;2022-08-21T07:18:34;17.00;99.90
8832;DHT22;4452;50.756;4.472;2022-08-21T07:21:06;17.20;99.90
8832;DHT22;4452;50.756;4.472;2022-08-21T07:23:37;17.30;99.90
8832;DHT22;4452;50.756;4.472;2022-08-21T07:26:03;17.40;99.90
8832;DHT22;4452;50.756;4.472;2022-08-21T07:28:29;17.60;99.90
8832;DHT22;4452;50.756;4.472;2022-08-21T07:30:57;17.70;99.90
8832;DHT22;4452;50.756;4.472;2022-08-21T07:33:25;17.90;99.90
8832;DHT22;4452;50.756;4.472;2022-08-21T07:35:52;17.80;99.90
8832;DHT22;4452;50.756;4.472;2022-08-21T07:38:18;17.90;99.90
8832;DHT22;4452;50.756;4.472;2022-08-21T07:40:45;18.00;99.90
8832;DHT22;4452;50.756;4.472;2022-08-21T07:43:11;18.20;99.90
8832;DHT22;4452;50.756;4.472;2022-08-21T07:45:37;18.40;99.90
8832;DHT22;4452;50.756;4.472;2022-08-21T07:48:04;18.50;99.90
8832;DHT22;4452;50.756;4.472;2022-08-21T07:50:30;18.50;99.90
8832;DHT22;4452;50.756;4.472;2022-08-21T07:52:56;18.70;99.90
8832;DHT22;4452;50.756;4.472;2022-08-21T07:55:22;19.00;99.90
8832;DHT22;4452;50.756;4.472;2022-08-21T07:57:48;18.90;99.90
8832;DHT22;4452;50.756;4.472;2022-08-21T08:00:19;18.90;99.90
8832;DHT22;4452;50.756;4.472;2022-08-21T08:02:48;18.90;99.90
8832;DHT22;4452;50.756;4.472;2022-08-21T08:05:19;19.10;99.90
8832;DHT22;4452;50.756;4.472;2022-08-21T08:07:45;19.50;99.90
8832;DHT22;4452;50.756;4.472;2022-08-21T08:10:11;19.30;99.90
8832;DHT22;4452;50.756;4.472;2022-08-21T08:12:39;19.40;99.90
8832;DHT22;4452;50.756;4.472;2022-08-21T08:15:08;19.30;99.90
8832;DHT22;4452;50.756;4.472;2022-08-21T08:17:34;19.30;99.90
8832;DHT22;4452;50.756;4.472;2022-08-21T08:20:00;19.30;99.90
8832;DHT22;4452;50.756;4.472;2022-08-21T08:22:27;19.60;99.90
8832;DHT22;4452;50.756;4.472;2022-08-21T08:24:53;19.70;99.90
8832;DHT22;4452;50.756;4.472;2022-08-21T08:27:20;19.60;99.90
8832;DHT22;4452;50.756;4.472;2022-08-21T08:29:46;19.80;99.90
8832;DHT22;4452;50.756;4.472;2022-08-21T08:32:13;19.60;99.90
8832;DHT22;4452;50.756;4.472;2022-08-21T08:34:39;19.60;99.90
8832;DHT22;4452;50.756;4.472;2022-08-21T08:37:06;19.50;99.90
8832;DHT22;4452;50.756;4.472;2022-08-21T08:39:32;19.30;99.90
8832;DHT22;4452;50.756;4.472;2022-08-21T08:42:14;19.30;99.90
8832;DHT22;4452;50.756;4.472;2022-08-21T08:44:44;19.40;99.90
8832;DHT22;4452;50.756;4.472;2022-08-21T08:47:13;19.40;99.90
8832;DHT22;4452;50.756;4.472;2022-08-21T08:50:00;19.70;99.90
8832;DHT22;4452;50.756;4.472;2022-08-21T08:52:30;19.60;99.90
8832;DHT22;4452;50.756;4.472;2022-08-21T08:55:08;19.40;99.90
8832;DHT22;4452;50.756;4.472;2022-08-21T08:57:36;19.70;99.90
8832;DHT22;4452;50.756;4.472;2022-08-21T09:00:09;19.80;99.90
8832;DHT22;4452;50.756;4.472;2022-08-21T09:02:39;19.70;99.90
8832;DHT22;4452;50.756;4.472;2022-08-21T09:05:06;19.70;99.90
8832;DHT22;4452;50.756;4.472;2022-08-21T09:10:22;20.10;99.90
8832;DHT22;4452;50.756;4.472;2022-08-21T09:18:35;20.10;99.90
8832;DHT22;4452;50.756;4.472;2022-08-21T09:27:12;20.70;99.90
8832;DHT22;4452;50.756;4.472;2022-08-21T09:29:42;21.00;99.90
8832;DHT22;4452;50.756;4.472;2022-08-21T09:32:28;21.00;99.90
8832;DHT22;4452;50.756;4.472;2022-08-21T09:35:05;20.60;99.90
8832;DHT22;4452;50.756;4.472;2022-08-21T09:37:34;20.80;99.90
8832;DHT22;4452;50.756;4.472;2022-08-21T09:40:02;21.10;99.90
8832;DHT22;4452;50.756;4.472;2022-08-21T09:42:30;20.80;99.90
8832;DHT22;4452;50.756;4.472;2022-08-21T09:45:26;21.10;99.90
8832;DHT22;4452;50.756;4.472;2022-08-21T09:47:51;21.30;99.90
8832;DHT22;4452;50.756;4.472;2022-08-21T09:50:22;21.30;99.90
8832;DHT22;4452;50.756;4.472;2022-08-21T09:52:56;21.90;99.90
8832;DHT22;4452;50.756;4.472;2022-08-21T09:58:11;22.10;99.90
8832;DHT22;4452;50.756;4.472;2022-08-21T10:00:57;22.40;99.90
8832;DHT22;4452;50.756;4.472;2022-08-21T10:03:23;21.90;99.90
8832;DHT22;4452;50.756;4.472;2022-08-21T10:08:22;22.70;99.90
8832;DHT22;4452;50.756;4.472;2022-08-21T10:11:10;22.20;99.90
8832;DHT22;4452;50.756;4.472;2022-08-21T10:13:40;22.10;99.90
8832;DHT22;4452;50.756;4.472;2022-08-21T10:24:52;23.40;99.90
8832;DHT22;4452;50.756;4.472;2022-08-21T10:27:26;22.80;99.90
8832;DHT22;4452;50.756;4.472;2022-08-21T10:30:03;22.50;99.90
8832;DHT22;4452;50.756;4.472;2022-08-21T10:35:26;22.50;99.90
8832;DHT22;4452;50.756;4.472;2022-08-21T10:40:47;23.20;99.90
8832;DHT22;4452;50.756;4.472;2022-08-21T10:43:28;23.30;99.90
8832;DHT22;4452;50.756;4.472;2022-08-21T10:54:10;22.10;99.90
8832;DHT22;4452;50.756;4.472;2022-08-21T10:56:40;22.40;99.90
8832;DHT22;4452;50.756;4.472;2022-08-21T11:02:15;23.40;99.90
8832;DHT22;4452;50.756;4.472;2022-08-21T11:11:01;23.40;99.90
8832;DHT22;4452;50.756;4.472;2022-08-21T11:13:48;23.50;99.90
8832;DHT22;4452;50.756;4.472;2022-08-21T11:16:31;24.00;99.90
8832;DHT22;4452;50.756;4.472;2022-08-21T11:19:15;23.90;99.90
8832;DHT22;4452;50.756;4.472;2022-08-21T11:22:10;24.00;99.90
8832;DHT22;4452;50.756;4.472;2022-08-21T11:29:41;23.50;99.90
8832;DHT22;4452;50.756;4.472;2022-08-21T11:35:20;23.00;99.90
8832;DHT22;4452;50.756;4.472;2022-08-21T11:38:17;23.40;99.90
8832;DHT22;4452;50.756;4.472;2022-08-21T11:43:47;22.40;99.90
8832;DHT22;4452;50.756;4.472;2022-08-21T11:46:36;22.50;99.90
8832;DHT22;4452;50.756;4.472;2022-08-21T11:52:07;22.30;99.90
8832;DHT22;4452;50.756;4.472;2022-08-21T11:54:42;22.90;99.90
8832;DHT22;4452;50.756;4.472;2022-08-21T12:02:28;24.10;99.90
8832;DHT22;4452;50.756;4.472;2022-08-21T12:04:56;24.70;99.90
8832;DHT22;4452;50.756;4.472;2022-08-21T12:07:39;24.80;99.90
8832;DHT22;4452;50.756;4.472;2022-08-21T12:10:12;24.70;99.90
8832;DHT22;4452;50.756;4.472;2022-08-21T12:12:40;25.20;99.90
8832;DHT22;4452;50.756;4.472;2022-08-21T12:15:14;25.20;99.90
8832;DHT22;4452;50.756;4.472;2022-08-21T12:17:50;23.80;99.90
8832;DHT22;4452;50.756;4.472;2022-08-21T12:26:03;23.80;99.90
8832;DHT22;4452;50.756;4.472;2022-08-21T12:28:26;24.40;99.90
8832;DHT22;4452;50.756;4.472;2022-08-21T12:30:53;23.90;99.90
8832;DHT22;4452;50.756;4.472;2022-08-21T12:35:48;24.10;99.90
8832;DHT22;4452;50.756;4.472;2022-08-21T12:38:18;24.60;99.90
8832;DHT22;4452;50.756;4.472;2022-08-21T12:40:57;25.10;99.90
8832;DHT22;4452;50.756;4.472;2022-08-21T12:45:59;25.50;99.90
8832;DHT22;4452;50.756;4.472;2022-08-21T12:48:47;25.50;99.90
8832;DHT22;4452;50.756;4.472;2022-08-21T12:51:23;25.50;99.90
8832;DHT22;4452;50.756;4.472;2022-08-21T12:53:54;24.80;99.90
8832;DHT22;4452;50.756;4.472;2022-08-21T12:56:23;24.40;99.90
8832;DHT22;4452;50.756;4.472;2022-08-21T12:58:56;23.80;99.90
8832;DHT22;4452;50.756;4.472;2022-08-21T13:04:02;24.50;99.90
8832;DHT22;4452;50.756;4.472;2022-08-21T13:06:36;24.70;99.90
8832;DHT22;4452;50.756;4.472;2022-08-21T13:09:06;24.60;99.90
8832;DHT22;4452;50.756;4.472;2022-08-21T13:11:33;25.50;99.90
8832;DHT22;4452;50.756;4.472;2022-08-21T13:14:00;25.90;99.90
8832;DHT22;4452;50.756;4.472;2022-08-21T13:16:28;25.50;99.90
8832;DHT22;4452;50.756;4.472;2022-08-21T13:18:56;25.50;99.90
8832;DHT22;4452;50.756;4.472;2022-08-21T13:21:34;25.80;99.90
8832;DHT22;4452;50.756;4.472;2022-08-21T13:24:28;25.60;99.90
8832;DHT22;4452;50.756;4.472;2022-08-21T13:26:55;25.30;99.90
8832;DHT22;4452;50.756;4.472;2022-08-21T13:29:26;24.70;99.90
8832;DHT22;4452;50.756;4.472;2022-08-21T13:32:01;24.10;99.90
8832;DHT22;4452;50.756;4.472;2022-08-21T13:34:34;23.90;99.90
8832;DHT22;4452;50.756;4.472;2022-08-21T13:37:05;23.80;99.90
8832;DHT22;4452;50.756;4.472;2022-08-21T13:39:32;23.60;99.90
8832;DHT22;4452;50.756;4.472;2022-08-21T13:42:01;23.50;99.90
8832;DHT22;4452;50.756;4.472;2022-08-21T13:46:56;23.60;99.90
8832;DHT22;4452;50.756;4.472;2022-08-21T13:49:32;23.70;99.90
8832;DHT22;4452;50.756;4.472;2022-08-21T13:51:59;23.70;99.90
8832;DHT22;4452;50.756;4.472;2022-08-21T13:56:53;23.60;99.90
8832;DHT22;4452;50.756;4.472;2022-08-21T13:59:31;23.80;99.90
8832;DHT22;4452;50.756;4.472;2022-08-21T14:02:18;24.10;99.90
8832;DHT22;4452;50.756;4.472;2022-08-21T14:05:02;24.20;99.90
8832;DHT22;4452;50.756;4.472;2022-08-21T14:07:33;24.60;99.90
8832;DHT22;4452;50.756;4.472;2022-08-21T14:10:45;24.90;99.90
8832;DHT22;4452;50.756;4.472;2022-08-21T14:13:04;24.80;99.90
8832;DHT22;4452;50.756;4.472;2022-08-21T14:15:32;24.20;99.90
8832;DHT22;4452;50.756;4.472;2022-08-21T14:18:15;24.00;99.90
8832;DHT22;4452;50.756;4.472;2022-08-21T14:20:41;24.10;99.90
8832;DHT22;4452;50.756;4.472;2022-08-21T14:23:07;23.90;99.90
8832;DHT22;4452;50.756;4.472;2022-08-21T14:25:39;23.80;99.90
8832;DHT22;4452;50.756;4.472;2022-08-21T14:28:17;23.70;99.90
8832;DHT22;4452;50.756;4.472;2022-08-21T14:30:44;23.80;99.90
8832;DHT22;4452;50.756;4.472;2022-08-21T14:33:12;23.70;99.90
8832;DHT22;4452;50.756;4.472;2022-08-21T14:35:38;23.60;99.90
8832;DHT22;4452;50.756;4.472;2022-08-21T14:38:15;23.80;99.90
8832;DHT22;4452;50.756;4.472;2022-08-21T14:40:42;24.20;99.90
8832;DHT22;4452;50.756;4.472;2022-08-21T14:43:08;24.00;99.90
8832;DHT22;4452;50.756;4.472;2022-08-21T14:45:34;24.30;99.90
8832;DHT22;4452;50.756;4.472;2022-08-21T14:48:02;24.30;99.90
8832;DHT22;4452;50.756;4.472;2022-08-21T14:50:27;25.10;99.90
8832;DHT22;4452;50.756;4.472;2022-08-21T14:52:53;24.90;99.90
8832;DHT22;4452;50.756;4.472;2022-08-21T14:55:19;24.70;99.90
8832;DHT22;4452;50.756;4.472;2022-08-21T14:57:48;24.70;99.90
8832;DHT22;4452;50.756;4.472;2022-08-21T15:00:19;24.40;99.90
8832;DHT22;4452;50.756;4.472;2022-08-21T15:02:45;23.80;99.90
8832;DHT22;4452;50.756;4.472;2022-08-21T15:05:12;23.90;99.90
8832;DHT22;4452;50.756;4.472;2022-08-21T15:07:39;24.10;99.90
8832;DHT22;4452;50.756;4.472;2022-08-21T15:10:08;23.90;99.90
8832;DHT22;4452;50.756;4.472;2022-08-21T15:12:34;23.50;99.90
8832;DHT22;4452;50.756;4.472;2022-08-21T15:15:00;23.70;99.90
8832;DHT22;4452;50.756;4.472;2022-08-21T15:17:26;24.10;99.90
8832;DHT22;4452;50.756;4.472;2022-08-21T15:19:52;24.20;99.90
8832;DHT22;4452;50.756;4.472;2022-08-21T15:22:17;23.80;99.90
8832;DHT22;4452;50.756;4.472;2022-08-21T15:24:43;23.80;99.90
8832;DHT22;4452;50.756;4.472;2022-08-21T15:27:10;23.80;99.90
8832;DHT22;4452;50.756;4.472;2022-08-21T15:29:37;23.60;99.90
8832;DHT22;4452;50.756;4.472;2022-08-21T15:32:16;23.80;99.90
8832;DHT22;4452;50.756;4.472;2022-08-21T15:34:42;23.80;99.90
8832;DHT22;4452;50.756;4.472;2022-08-21T15:37:08;23.50;99.90
8832;DHT22;4452;50.756;4.472;2022-08-21T15:39:35;23.80;99.90
8832;DHT22;4452;50.756;4.472;2022-08-21T15:42:02;24.10;99.90
8832;DHT22;4452;50.756;4.472;2022-08-21T15:44:28;24.40;99.90
8832;DHT22;4452;50.756;4.472;2022-08-21T15:46:55;24.40;99.90
8832;DHT22;4452;50.756;4.472;2022-08-21T15:49:21;23.70;99.90
8832;DHT22;4452;50.756;4.472;2022-08-21T15:51:46;23.60;99.90
8832;DHT22;4452;50.756;4.472;2022-08-21T15:54:12;23.90;99.90
8832;DHT22;4452;50.756;4.472;2022-08-21T15:56:39;24.10;99.90
8832;DHT22;4452;50.756;4.472;2022-08-21T15:59:14;23.70;99.90
8832;DHT22;4452;50.756;4.472;2022-08-21T16:01:40;23.80;99.90
8832;DHT22;4452;50.756;4.472;2022-08-21T16:04:07;23.80;99.90
8832;DHT22;4452;50.756;4.472;2022-08-21T16:06:33;23.60;99.90
8832;DHT22;4452;50.756;4.472;2022-08-21T16:08:59;23.40;99.90
8832;DHT22;4452;50.756;4.472;2022-08-21T16:11:25;23.30;99.90
8832;DHT22;4452;50.756;4.472;2022-08-21T16:13:51;23.20;99.90
8832;DHT22;4452;50.756;4.472;2022-08-21T16:16:20;23.40;99.90
8832;DHT22;4452;50.756;4.472;2022-08-21T16:18:46;23.60;99.90
8832;DHT22;4452;50.756;4.472;2022-08-21T16:21:12;23.90;99.90
8832;DHT22;4452;50.756;4.472;2022-08-21T16:23:38;24.20;99.90
8832;DHT22;4452;50.756;4.472;2022-08-21T16:26:06;24.50;99.90
8832;DHT22;4452;50.756;4.472;2022-08-21T16:28:34;24.50;99.90
8832;DHT22;4452;50.756;4.472;2022-08-21T16:31:00;24.10;99.90
8832;DHT22;4452;50.756;4.472;2022-08-21T16:33:41;24.10;99.90
8832;DHT22;4452;50.756;4.472;2022-08-21T16:36:08;23.90;99.90
8832;DHT22;4452;50.756;4.472;2022-08-21T16:38:35;23.70;99.90
8832;DHT22;4452;50.756;4.472;2022-08-21T16:41:07;23.90;99.90
8832;DHT22;4452;50.756;4.472;2022-08-21T16:43:33;24.30;99.90
8832;DHT22;4452;50.756;4.472;2022-08-21T16:45:59;24.80;99.90
8832;DHT22;4452;50.756;4.472;2022-08-21T16:48:26;24.20;99.90
8832;DHT22;4452;50.756;4.472;2022-08-21T16:50:57;23.60;99.90
8832;DHT22;4452;50.756;4.472;2022-08-21T16:53:23;23.60;99.90
8832;DHT22;4452;50.756;4.472;2022-08-21T16:55:50;23.90;99.90
8832;DHT22;4452;50.756;4.472;2022-08-21T16:58:22;23.90;99.90
8832;DHT22;4452;50.756;4.472;2022-08-21T17:00:49;24.00;99.90
8832;DHT22;4452;50.756;4.472;2022-08-21T17:03:16;24.40;99.90
8832;DHT22;4452;50.756;4.472;2022-08-21T17:05:44;24.00;99.90
8832;DHT22;4452;50.756;4.472;2022-08-21T17:08:10;24.00;99.90
8832;DHT22;4452;50.756;4.472;2022-08-21T17:10:36;24.10;99.90
8832;DHT22;4452;50.756;4.472;2022-08-21T17:13:03;24.20;99.90
8832;DHT22;4452;50.756;4.472;2022-08-21T17:15:34;24.10;99.90
8832;DHT22;4452;50.756;4.472;2022-08-21T17:18:01;23.90;99.90
8832;DHT22;4452;50.756;4.472;2022-08-21T17:20:28;23.90;99.90
8832;DHT22;4452;50.756;4.472;2022-08-21T17:22:53;23.80;99.90
8832;DHT22;4452;50.756;4.472;2022-08-21T17:25:19;23.50;99.90
8832;DHT22;4452;50.756;4.472;2022-08-21T17:27:46;23.10;99.90
8832;DHT22;4452;50.756;4.472;2022-08-21T17:30:14;23.40;99.90
8832;DHT22;4452;50.756;4.472;2022-08-21T17:32:43;23.40;99.90
8832;DHT22;4452;50.756;4.472;2022-08-21T17:35:11;23.40;99.90
8832;DHT22;4452;50.756;4.472;2022-08-21T17:37:38;23.30;99.90
8832;DHT22;4452;50.756;4.472;2022-08-21T17:40:11;23.20;99.90
8832;DHT22;4452;50.756;4.472;2022-08-21T17:42:41;23.10;99.90
8832;DHT22;4452;50.756;4.472;2022-08-21T17:45:12;23.10;99.90